sensor_id;sensor_type;location;lat;lon;timestamp;pressure;altitude;pressure_sealevel;temperature;humidity
59104;BME280;51449;51.676;5.812;2022-12-24T00:01:08;100542.00;;;11.07;79.71
59104;BME280;51449;51.676;5.812;2022-12-24T00:03:31;100538.75;;;11.05;80.00
59104;BME280;51449;51.676;5.812;2022-12-24T00:05:53;100547.38;;;11.04;80.17
59104;BME280;51449;51.676;5.812;2022-12-24T00:08:15;100556.34;;;11.01;80.30
59104;BME280;51449;51.676;5.812;2022-12-24T00:10:37;100553.13;;;10.99;80.32
59104;BME280;51449;51.676;5.812;2022-12-24T00:12:59;100553.44;;;10.97;80.44
59104;BME280;51449;51.676;5.812;2022-12-24T00:15:21;100567.59;;;10.96;80.66
59104;BME280;51449;51.676;5.812;2022-12-24T00:17:43;100567.91;;;10.94;80.57
59104;BME280;51449;51.676;5.812;2022-12-24T00:20:06;100560.81;;;10.93;80.72
59104;BME280;51449;51.676;5.812;2022-12-24T00:22:29;100567.81;;;10.90;81.03
59104;BME280;51449;51.676;5.812;2022-12-24T00:24:51;100568.63;;;10.91;81.11
59104;BME280;51449;51.676;5.812;2022-12-24T00:27:12;100582.72;;;10.89;81.08
59104;BME280;51449;51.676;5.812;2022-12-24T00:29:34;100573.19;;;10.87;81.48
59104;BME280;51449;51.676;5.812;2022-12-24T00:31:57;100583.09;;;10.88;81.47
59104;BME280;51449;51.676;5.812;2022-12-24T00:34:21;100588.94;;;10.86;81.64
59104;BME280;51449;51.676;5.812;2022-12-24T00:36:44;100586.50;;;10.85;81.60
59104;BME280;51449;51.676;5.812;2022-12-24T00:39:06;100592.00;;;10.85;81.56
59104;BME280;51449;51.676;5.812;2022-12-24T00:41:28;100595.94;;;10.84;81.54
59104;BME280;51449;51.676;5.812;2022-12-24T00:43:51;100594.34;;;10.83;81.75
59104;BME280;51449;51.676;5.812;2022-12-24T00:46:17;100598.00;;;10.87;81.92
59104;BME280;51449;51.676;5.812;2022-12-24T00:48:39;100606.63;;;10.85;82.17
59104;BME280;51449;51.676;5.812;2022-12-24T00:51:01;100609.72;;;10.84;82.45
59104;BME280;51449;51.676;5.812;2022-12-24T00:53:23;100616.38;;;10.83;82.23
59104;BME280;51449;51.676;5.812;2022-12-24T00:55:45;100616.38;;;10.83;82.42
59104;BME280;51449;51.676;5.812;2022-12-24T00:58:07;100626.81;;;10.89;82.25
59104;BME280;51449;51.676;5.812;2022-12-24T01:00:28;100622.16;;;10.90;82.38
59104;BME280;51449;51.676;5.812;2022-12-24T01:02:50;100626.81;;;10.89;82.30
59104;BME280;51449;51.676;5.812;2022-12-24T01:05:13;100625.22;;;10.88;82.12
59104;BME280;51449;51.676;5.812;2022-12-24T01:07:36;100629.94;;;10.88;81.86
59104;BME280;51449;51.676;5.812;2022-12-24T01:10:06;100638.53;;;10.86;81.96
59104;BME280;51449;51.676;5.812;2022-12-24T01:12:29;100637.75;;;10.86;81.79
59104;BME280;51449;51.676;5.812;2022-12-24T01:14:51;100640.97;;;10.88;81.95
59104;BME280;51449;51.676;5.812;2022-12-24T01:17:13;100644.53;;;10.88;81.71
59104;BME280;51449;51.676;5.812;2022-12-24T01:19:36;100637.38;;;10.87;81.17
59104;BME280;51449;51.676;5.812;2022-12-24T01:21:57;100639.69;;;10.85;81.04
59104;BME280;51449;51.676;5.812;2022-12-24T01:24:20;100634.19;;;10.85;80.69
59104;BME280;51449;51.676;5.812;2022-12-24T01:26:42;100646.13;;;10.89;80.80
59104;BME280;51449;51.676;5.812;2022-12-24T01:29:04;100656.81;;;10.91;80.52
59104;BME280;51449;51.676;5.812;2022-12-24T01:31:26;100659.69;;;10.95;80.29
59104;BME280;51449;51.676;5.812;2022-12-24T01:33:48;100658.09;;;10.93;80.40
59104;BME280;51449;51.676;5.812;2022-12-24T01:36:12;100665.56;;;10.93;80.47
59104;BME280;51449;51.676;5.812;2022-12-24T01:38:34;100673.03;;;10.92;80.11
59104;BME280;51449;51.676;5.812;2022-12-24T01:40:56;100661.63;;;10.94;80.26
59104;BME280;51449;51.676;5.812;2022-12-24T01:43:36;100671.53;;;10.95;79.92
59104;BME280;51449;51.676;5.812;2022-12-24T01:46:02;100682.09;;;10.93;79.87
59104;BME280;51449;51.676;5.812;2022-12-24T01:48:39;100686.81;;;10.92;79.94
59104;BME280;51449;51.676;5.812;2022-12-24T01:53:38;100685.97;;;10.92;79.79
59104;BME280;51449;51.676;5.812;2022-12-24T01:56:04;100687.59;;;10.93;79.95
59104;BME280;51449;51.676;5.812;2022-12-24T01:58:28;100689.56;;;10.92;79.96
59104;BME280;51449;51.676;5.812;2022-12-24T02:00:50;100691.06;;;10.90;79.55
59104;BME280;51449;51.676;5.812;2022-12-24T02:03:12;100688.94;;;10.87;79.73
59104;BME280;51449;51.676;5.812;2022-12-24T02:05:47;100701.13;;;10.86;79.98
59104;BME280;51449;51.676;5.812;2022-12-24T02:08:13;100697.91;;;10.84;79.66
59104;BME280;51449;51.676;5.812;2022-12-24T02:10:35;100704.44;;;10.79;79.67
59104;BME280;51449;51.676;5.812;2022-12-24T02:12:58;100712.91;;;10.74;79.98
59104;BME280;51449;51.676;5.812;2022-12-24T02:15:21;100714.38;;;10.71;80.03
59104;BME280;51449;51.676;5.812;2022-12-24T02:17:56;100731.44;;;10.65;80.13
59104;BME280;51449;51.676;5.812;2022-12-24T02:25:58;100721.66;;;10.55;81.17
59104;BME280;51449;51.676;5.812;2022-12-24T02:31:21;100730.84;;;10.59;81.44
59104;BME280;51449;51.676;5.812;2022-12-24T02:33:54;100725.34;;;10.59;81.48
59104;BME280;51449;51.676;5.812;2022-12-24T02:36:30;100737.50;;;10.58;81.20
59104;BME280;51449;51.676;5.812;2022-12-24T02:39:05;100740.25;;;10.58;81.78
59104;BME280;51449;51.676;5.812;2022-12-24T02:41:36;100726.47;;;10.58;81.74
59104;BME280;51449;51.676;5.812;2022-12-24T02:44:24;100734.28;;;10.56;81.92
59104;BME280;51449;51.676;5.812;2022-12-24T02:46:49;100733.94;;;10.58;81.89
59104;BME280;51449;51.676;5.812;2022-12-24T02:49:13;100729.69;;;10.60;82.28
59104;BME280;51449;51.676;5.812;2022-12-24T02:51:35;100726.16;;;10.60;82.37
59104;BME280;51449;51.676;5.812;2022-12-24T02:53:57;100729.69;;;10.60;82.42
59104;BME280;51449;51.676;5.812;2022-12-24T03:04:57;100728.22;;;10.63;82.87
59104;BME280;51449;51.676;5.812;2022-12-24T03:07:47;100734.22;;;10.65;82.86
59104;BME280;51449;51.676;5.812;2022-12-24T03:10:51;100738.13;;;10.64;83.30
59104;BME280;51449;51.676;5.812;2022-12-24T03:13:18;100727.09;;;10.64;83.36
59104;BME280;51449;51.676;5.812;2022-12-24T03:15:42;100719.97;;;10.63;83.46
59104;BME280;51449;51.676;5.812;2022-12-24T03:18:08;100723.53;;;10.63;83.75
59104;BME280;51449;51.676;5.812;2022-12-24T03:20:36;100725.81;;;10.61;83.80
59104;BME280;51449;51.676;5.812;2022-12-24T03:23:02;100731.34;;;10.61;83.76
59104;BME280;51449;51.676;5.812;2022-12-24T03:25:25;100733.28;;;10.61;83.54
59104;BME280;51449;51.676;5.812;2022-12-24T03:27:48;100736.69;;;10.58;83.25
59104;BME280;51449;51.676;5.812;2022-12-24T03:30:13;100731.88;;;10.55;83.59
59104;BME280;51449;51.676;5.812;2022-12-24T03:32:36;100734.50;;;10.51;83.66
59104;BME280;51449;51.676;5.812;2022-12-24T03:34:59;100745.03;;;10.49;83.78
59104;BME280;51449;51.676;5.812;2022-12-24T03:37:22;100743.41;;;10.48;83.72
59104;BME280;51449;51.676;5.812;2022-12-24T03:39:45;100752.03;;;10.46;84.37
59104;BME280;51449;51.676;5.812;2022-12-24T03:42:07;100754.31;;;10.44;84.68
59104;BME280;51449;51.676;5.812;2022-12-24T03:44:29;100752.34;;;10.45;84.94
59104;BME280;51449;51.676;5.812;2022-12-24T03:46:51;100751.19;;;10.46;84.95
59104;BME280;51449;51.676;5.812;2022-12-24T03:49:13;100758.81;;;10.49;84.90
59104;BME280;51449;51.676;5.812;2022-12-24T03:51:35;100752.16;;;10.50;85.22
59104;BME280;51449;51.676;5.812;2022-12-24T03:53:57;100755.38;;;10.52;85.19
59104;BME280;51449;51.676;5.812;2022-12-24T03:56:20;100754.22;;;10.53;85.10
59104;BME280;51449;51.676;5.812;2022-12-24T03:58:42;100760.22;;;10.55;85.24
59104;BME280;51449;51.676;5.812;2022-12-24T04:01:04;100758.72;;;10.58;85.22
59104;BME280;51449;51.676;5.812;2022-12-24T04:03:26;100765.19;;;10.62;85.24
59104;BME280;51449;51.676;5.812;2022-12-24T04:06:08;100771.97;;;10.64;85.14
59104;BME280;51449;51.676;5.812;2022-12-24T04:08:32;100770.03;;;10.65;85.06
59104;BME280;51449;51.676;5.812;2022-12-24T04:10:54;100772.47;;;10.66;85.44
59104;BME280;51449;51.676;5.812;2022-12-24T04:13:16;100772.47;;;10.66;84.97
59104;BME280;51449;51.676;5.812;2022-12-24T04:15:38;100770.81;;;10.65;85.04
59104;BME280;51449;51.676;5.812;2022-12-24T04:18:00;100769.69;;;10.66;85.13
59104;BME280;51449;51.676;5.812;2022-12-24T04:20:22;100771.31;;;10.67;85.23
59104;BME280;51449;51.676;5.812;2022-12-24T04:22:44;100763.03;;;10.67;85.09
59104;BME280;51449;51.676;5.812;2022-12-24T04:25:06;100777.16;;;10.66;85.12
59104;BME280;51449;51.676;5.812;2022-12-24T04:27:29;100779.56;;;10.67;85.64
59104;BME280;51449;51.676;5.812;2022-12-24T04:29:51;100788.31;;;10.69;85.82
59104;BME280;51449;51.676;5.812;2022-12-24T04:32:13;100779.38;;;10.73;85.72
59104;BME280;51449;51.676;5.812;2022-12-24T04:34:36;100773.53;;;10.74;85.59
59104;BME280;51449;51.676;5.812;2022-12-24T04:36:58;100781.47;;;10.76;85.79
59104;BME280;51449;51.676;5.812;2022-12-24T04:39:20;100775.13;;;10.75;85.56
59104;BME280;51449;51.676;5.812;2022-12-24T04:41:42;100788.25;;;10.78;85.69
59104;BME280;51449;51.676;5.812;2022-12-24T04:44:04;100789.06;;;10.79;85.85
59104;BME280;51449;51.676;5.812;2022-12-24T04:46:28;100791.34;;;10.77;85.68
59104;BME280;51449;51.676;5.812;2022-12-24T04:48:54;100789.53;;;10.81;85.83
59104;BME280;51449;51.676;5.812;2022-12-24T04:51:16;100794.38;;;10.84;86.17
59104;BME280;51449;51.676;5.812;2022-12-24T04:53:39;100797.13;;;10.84;85.89
59104;BME280;51449;51.676;5.812;2022-12-24T04:56:02;100786.91;;;10.84;85.87
59104;BME280;51449;51.676;5.812;2022-12-24T04:58:28;100796.91;;;10.89;85.76
59104;BME280;51449;51.676;5.812;2022-12-24T05:00:50;100802.91;;;10.91;85.65
59104;BME280;51449;51.676;5.812;2022-12-24T05:03:12;100805.66;;;10.91;85.50
59104;BME280;51449;51.676;5.812;2022-12-24T05:05:34;100807.94;;;10.89;85.66
59104;BME280;51449;51.676;5.812;2022-12-24T05:07:56;100803.22;;;10.89;85.48
59104;BME280;51449;51.676;5.812;2022-12-24T05:10:18;100806.34;;;10.88;85.82
59104;BME280;51449;51.676;5.812;2022-12-24T05:12:40;100801.75;;;10.92;85.71
59104;BME280;51449;51.676;5.812;2022-12-24T05:15:02;100799.34;;;10.90;85.75
59104;BME280;51449;51.676;5.812;2022-12-24T05:17:24;100801.63;;;10.88;86.04
59104;BME280;51449;51.676;5.812;2022-12-24T05:19:46;100790.59;;;10.88;85.77
59104;BME280;51449;51.676;5.812;2022-12-24T05:22:08;100806.81;;;10.90;86.05
59104;BME280;51449;51.676;5.812;2022-12-24T05:24:48;100810.22;;;10.87;85.90
59104;BME280;51449;51.676;5.812;2022-12-24T05:27:29;100808.63;;;10.86;85.58
59104;BME280;51449;51.676;5.812;2022-12-24T05:29:51;100818.16;;;10.88;85.77
59104;BME280;51449;51.676;5.812;2022-12-24T05:32:13;100821.25;;;10.87;85.91
59104;BME280;51449;51.676;5.812;2022-12-24T05:34:35;100815.25;;;10.85;85.91
59104;BME280;51449;51.676;5.812;2022-12-24T05:36:57;100819.28;;;10.87;85.85
59104;BME280;51449;51.676;5.812;2022-12-24T05:39:19;100818.97;;;10.89;86.03
59104;BME280;51449;51.676;5.812;2022-12-24T05:41:41;100812.97;;;10.87;85.77
59104;BME280;51449;51.676;5.812;2022-12-24T05:44:03;100814.25;;;10.89;86.10
59104;BME280;51449;51.676;5.812;2022-12-24T05:46:25;100812.34;;;10.90;85.96
59104;BME280;51449;51.676;5.812;2022-12-24T05:48:48;100822.19;;;10.91;85.64
59104;BME280;51449;51.676;5.812;2022-12-24T05:51:12;100815.88;;;10.90;85.61
59104;BME280;51449;51.676;5.812;2022-12-24T05:53:35;100823.69;;;10.88;85.81
59104;BME280;51449;51.676;5.812;2022-12-24T05:56:24;100829.19;;;10.88;85.64
59104;BME280;51449;51.676;5.812;2022-12-24T05:58:47;100827.91;;;10.86;85.90
59104;BME280;51449;51.676;5.812;2022-12-24T06:01:10;100829.88;;;10.85;85.86
59104;BME280;51449;51.676;5.812;2022-12-24T06:03:33;100840.75;;;10.82;86.33
59104;BME280;51449;51.676;5.812;2022-12-24T06:06:06;100841.09;;;10.80;86.28
59104;BME280;51449;51.676;5.812;2022-12-24T06:08:31;100841.41;;;10.79;86.24
59104;BME280;51449;51.676;5.812;2022-12-24T06:10:55;100841.41;;;10.79;86.66
59104;BME280;51449;51.676;5.812;2022-12-24T06:13:18;100848.53;;;10.80;86.34
59104;BME280;51449;51.676;5.812;2022-12-24T06:15:40;100840.75;;;10.82;86.61
59104;BME280;51449;51.676;5.812;2022-12-24T06:18:02;100855.00;;;10.84;86.15
59104;BME280;51449;51.676;5.812;2022-12-24T06:20:24;100858.91;;;10.83;86.41
59104;BME280;51449;51.676;5.812;2022-12-24T06:22:46;100854.53;;;10.82;86.25
59104;BME280;51449;51.676;5.812;2022-12-24T06:25:08;100849.50;;;10.84;86.42
59104;BME280;51449;51.676;5.812;2022-12-24T06:27:30;100858.09;;;10.82;86.30
59104;BME280;51449;51.676;5.812;2022-12-24T06:29:52;100866.03;;;10.84;85.56
59104;BME280;51449;51.676;5.812;2022-12-24T06:32:14;100873.81;;;10.82;86.26
59104;BME280;51449;51.676;5.812;2022-12-24T06:34:36;100875.44;;;10.83;85.80
59104;BME280;51449;51.676;5.812;2022-12-24T06:36:58;100875.44;;;10.83;85.88
59104;BME280;51449;51.676;5.812;2022-12-24T06:39:20;100870.75;;;10.83;85.79
59104;BME280;51449;51.676;5.812;2022-12-24T06:41:42;100875.44;;;10.83;85.46
59104;BME280;51449;51.676;5.812;2022-12-24T06:44:04;100880.13;;;10.82;85.60
59104;BME280;51449;51.676;5.812;2022-12-24T06:46:26;100877.38;;;10.82;85.15
59104;BME280;51449;51.676;5.812;2022-12-24T06:48:48;100881.41;;;10.85;85.43
59104;BME280;51449;51.676;5.812;2022-12-24T06:51:11;100889.69;;;10.85;85.77
59104;BME280;51449;51.676;5.812;2022-12-24T06:53:34;100882.88;;;10.82;85.46
59104;BME280;51449;51.676;5.812;2022-12-24T06:56:01;100894.25;;;10.81;85.62
59104;BME280;51449;51.676;5.812;2022-12-24T06:58:25;100887.59;;;10.82;85.30
59104;BME280;51449;51.676;5.812;2022-12-24T07:00:47;100892.63;;;10.80;85.42
59104;BME280;51449;51.676;5.812;2022-12-24T07:03:10;100889.41;;;10.78;85.51
59104;BME280;51449;51.676;5.812;2022-12-24T07:05:32;100881.81;;;10.75;85.40
59104;BME280;51449;51.676;5.812;2022-12-24T07:07:54;100883.44;;;10.76;85.63
59104;BME280;51449;51.676;5.812;2022-12-24T07:10:18;100892.81;;;10.75;85.20
59104;BME280;51449;51.676;5.812;2022-12-24T07:12:41;100899.81;;;10.72;85.27
59104;BME280;51449;51.676;5.812;2022-12-24T07:15:04;100897.22;;;10.76;85.28
59104;BME280;51449;51.676;5.812;2022-12-24T07:17:26;100905.94;;;10.78;85.32
59104;BME280;51449;51.676;5.812;2022-12-24T07:19:48;100907.09;;;10.77;84.80
59104;BME280;51449;51.676;5.812;2022-12-24T07:22:10;100906.59;;;10.75;84.68
59104;BME280;51449;51.676;5.812;2022-12-24T07:24:36;100903.53;;;10.76;84.42
59104;BME280;51449;51.676;5.812;2022-12-24T07:26:58;100903.84;;;10.75;84.36
59104;BME280;51449;51.676;5.812;2022-12-24T07:29:20;100919.91;;;10.73;84.04
59104;BME280;51449;51.676;5.812;2022-12-24T07:31:42;100910.03;;;10.71;83.86
59104;BME280;51449;51.676;5.812;2022-12-24T07:34:04;100916.22;;;10.68;83.91
59104;BME280;51449;51.676;5.812;2022-12-24T07:36:26;100918.97;;;10.68;83.75
59104;BME280;51449;51.676;5.812;2022-12-24T07:38:49;100931.47;;;10.66;83.74
59104;BME280;51449;51.676;5.812;2022-12-24T07:41:12;100939.25;;;10.64;83.55
59104;BME280;51449;51.676;5.812;2022-12-24T07:43:34;100944.41;;;10.65;83.72
59104;BME280;51449;51.676;5.812;2022-12-24T07:45:56;100951.06;;;10.64;83.50
59104;BME280;51449;51.676;5.812;2022-12-24T07:48:19;100955.31;;;10.62;83.69
59104;BME280;51449;51.676;5.812;2022-12-24T07:50:41;100961.31;;;10.64;83.43
59104;BME280;51449;51.676;5.812;2022-12-24T07:53:03;100961.97;;;10.61;83.58
59104;BME280;51449;51.676;5.812;2022-12-24T07:55:25;100977.03;;;10.63;83.54
59104;BME280;51449;51.676;5.812;2022-12-24T07:57:47;100964.53;;;10.66;83.75
59104;BME280;51449;51.676;5.812;2022-12-24T08:00:09;100979.59;;;10.68;83.46
59104;BME280;51449;51.676;5.812;2022-12-24T08:02:34;100985.09;;;10.68;83.48
59104;BME280;51449;51.676;5.812;2022-12-24T08:04:57;100986.41;;;10.71;83.37
59104;BME280;51449;51.676;5.812;2022-12-24T08:07:19;100999.38;;;10.70;83.34
59104;BME280;51449;51.676;5.812;2022-12-24T08:09:41;101011.84;;;10.68;83.25
59104;BME280;51449;51.676;5.812;2022-12-24T08:12:04;101006.31;;;10.68;83.04
59104;BME280;51449;51.676;5.812;2022-12-24T08:14:28;101017.69;;;10.66;83.44
59104;BME280;51449;51.676;5.812;2022-12-24T08:16:50;101012.19;;;10.66;83.55
59104;BME280;51449;51.676;5.812;2022-12-24T08:19:12;101033.06;;;10.67;83.30
59104;BME280;51449;51.676;5.812;2022-12-24T08:21:34;101028.22;;;10.64;83.75
59104;BME280;51449;51.676;5.812;2022-12-24T08:23:56;101031.47;;;10.66;83.48
59104;BME280;51449;51.676;5.812;2022-12-24T08:26:18;101030.31;;;10.67;83.67
59104;BME280;51449;51.676;5.812;2022-12-24T08:28:40;101031.97;;;10.68;83.61
59104;BME280;51449;51.676;5.812;2022-12-24T08:31:03;101042.63;;;10.70;83.49
59104;BME280;51449;51.676;5.812;2022-12-24T08:33:26;101037.13;;;10.70;83.58
59104;BME280;51449;51.676;5.812;2022-12-24T08:35:49;101037.47;;;10.68;83.88
59104;BME280;51449;51.676;5.812;2022-12-24T08:38:14;101048.13;;;10.70;83.65
59104;BME280;51449;51.676;5.812;2022-12-24T08:40:37;101039.75;;;10.66;83.79
59104;BME280;51449;51.676;5.812;2022-12-24T08:43:00;101044.91;;;10.68;83.65
59104;BME280;51449;51.676;5.812;2022-12-24T08:45:23;101038.59;;;10.67;83.71
59104;BME280;51449;51.676;5.812;2022-12-24T08:47:45;101041.34;;;10.67;83.94
59104;BME280;51449;51.676;5.812;2022-12-24T08:50:07;101045.72;;;10.68;83.71
59104;BME280;51449;51.676;5.812;2022-12-24T08:52:30;101048.97;;;10.70;83.94
59104;BME280;51449;51.676;5.812;2022-12-24T08:54:52;101042.00;;;10.73;83.65
59104;BME280;51449;51.676;5.812;2022-12-24T08:57:14;101050.41;;;10.77;83.52
59104;BME280;51449;51.676;5.812;2022-12-24T08:59:36;101053.16;;;10.77;83.84
59104;BME280;51449;51.676;5.812;2022-12-24T09:01:58;101060.28;;;10.78;83.74
59104;BME280;51449;51.676;5.812;2022-12-24T09:04:20;101061.09;;;10.78;83.61
59104;BME280;51449;51.676;5.812;2022-12-24T09:06:42;101052.47;;;10.80;83.96
59104;BME280;51449;51.676;5.812;2022-12-24T09:09:04;101061.91;;;10.79;83.75
59104;BME280;51449;51.676;5.812;2022-12-24T09:11:27;101072.63;;;10.80;83.90
59104;BME280;51449;51.676;5.812;2022-12-24T09:13:49;101084.75;;;10.79;83.47
59104;BME280;51449;51.676;5.812;2022-12-24T09:16:11;101075.03;;;10.82;83.63
59104;BME280;51449;51.676;5.812;2022-12-24T09:18:34;101091.56;;;10.82;83.90
59104;BME280;51449;51.676;5.812;2022-12-24T09:21:04;101094.13;;;10.87;83.78
59104;BME280;51449;51.676;5.812;2022-12-24T09:23:30;101105.66;;;10.89;83.56
59104;BME280;51449;51.676;5.812;2022-12-24T09:25:54;101099.81;;;10.90;83.73
59104;BME280;51449;51.676;5.812;2022-12-24T09:28:16;101105.47;;;10.94;83.64
59104;BME280;51449;51.676;5.812;2022-12-24T09:30:38;101110.00;;;10.99;83.54
59104;BME280;51449;51.676;5.812;2022-12-24T09:32:59;101115.50;;;10.99;83.54
59104;BME280;51449;51.676;5.812;2022-12-24T09:35:21;101107.53;;;11.06;83.76
59104;BME280;51449;51.676;5.812;2022-12-24T09:37:43;101115.94;;;11.09;83.38
59104;BME280;51449;51.676;5.812;2022-12-24T09:40:06;101110.44;;;11.09;83.32
59104;BME280;51449;51.676;5.812;2022-12-24T09:42:52;101121.00;;;11.07;83.20
59104;BME280;51449;51.676;5.812;2022-12-24T09:45:21;101126.53;;;11.07;83.29
59104;BME280;51449;51.676;5.812;2022-12-24T09:47:56;101130.88;;;11.08;83.21
59104;BME280;51449;51.676;5.812;2022-12-24T09:50:38;101135.72;;;11.11;83.52
59104;BME280;51449;51.676;5.812;2022-12-24T09:53:15;101133.31;;;11.10;83.65
59104;BME280;51449;51.676;5.812;2022-12-24T09:55:46;101139.31;;;11.12;83.44
59104;BME280;51449;51.676;5.812;2022-12-24T09:59:15;101135.09;;;11.14;83.70
59104;BME280;51449;51.676;5.812;2022-12-24T10:01:20;101130.50;;;11.19;83.75
59104;BME280;51449;51.676;5.812;2022-12-24T10:03:42;101131.63;;;11.26;83.59
59104;BME280;51449;51.676;5.812;2022-12-24T10:09:17;101153.34;;;11.37;83.23
59104;BME280;51449;51.676;5.812;2022-12-24T10:17:45;101164.81;;;11.47;82.71
59104;BME280;51449;51.676;5.812;2022-12-24T10:20:41;101165.91;;;11.55;82.84
59104;BME280;51449;51.676;5.812;2022-12-24T10:23:38;101171.88;;;11.66;82.88
59104;BME280;51449;51.676;5.812;2022-12-24T10:26:18;101162.06;;;11.77;82.77
59104;BME280;51449;51.676;5.812;2022-12-24T10:28:51;101162.84;;;11.77;81.55
59104;BME280;51449;51.676;5.812;2022-12-24T10:31:22;101159.44;;;11.81;81.88
59104;BME280;51449;51.676;5.812;2022-12-24T10:33:51;101160.72;;;11.83;81.84
59104;BME280;51449;51.676;5.812;2022-12-24T10:36:22;101147.72;;;11.84;81.46
59104;BME280;51449;51.676;5.812;2022-12-24T10:38:49;101153.72;;;11.86;81.57
59104;BME280;51449;51.676;5.812;2022-12-24T10:41:13;101146.25;;;11.86;81.31
59104;BME280;51449;51.676;5.812;2022-12-24T10:43:36;101153.41;;;11.87;81.32
59104;BME280;51449;51.676;5.812;2022-12-24T10:46:04;101150.97;;;11.86;81.21
59104;BME280;51449;51.676;5.812;2022-12-24T10:48:51;101149.84;;;11.87;81.15
59104;BME280;51449;51.676;5.812;2022-12-24T10:51:44;101153.25;;;11.84;81.20
59104;BME280;51449;51.676;5.812;2022-12-24T10:54:14;101155.22;;;11.83;81.32
59104;BME280;51449;51.676;5.812;2022-12-24T10:56:51;101150.00;;;11.82;80.83
59104;BME280;51449;51.676;5.812;2022-12-24T10:59:35;101163.50;;;11.83;80.97
59104;BME280;51449;51.676;5.812;2022-12-24T11:04:53;101158.94;;;11.87;81.09
59104;BME280;51449;51.676;5.812;2022-12-24T11:07:20;101157.94;;;11.92;81.05
59104;BME280;51449;51.676;5.812;2022-12-24T11:09:57;101166.00;;;11.97;80.93
59104;BME280;51449;51.676;5.812;2022-12-24T11:12:22;101161.78;;;11.99;81.17
59104;BME280;51449;51.676;5.812;2022-12-24T11:15:01;101171.53;;;11.97;80.67
59104;BME280;51449;51.676;5.812;2022-12-24T11:17:28;101165.22;;;11.96;80.90
59104;BME280;51449;51.676;5.812;2022-12-24T11:19:50;101165.22;;;11.96;80.03
59104;BME280;51449;51.676;5.812;2022-12-24T11:22:18;101165.38;;;12.00;80.16
59104;BME280;51449;51.676;5.812;2022-12-24T11:24:45;101160.94;;;12.08;79.87
59104;BME280;51449;51.676;5.812;2022-12-24T11:30:29;101157.38;;;12.07;79.38
59104;BME280;51449;51.676;5.812;2022-12-24T11:35:24;101165.28;;;12.09;79.20
59104;BME280;51449;51.676;5.812;2022-12-24T11:37:48;101168.53;;;12.11;78.49
59104;BME280;51449;51.676;5.812;2022-12-24T11:43:02;101170.13;;;12.12;78.31
59104;BME280;51449;51.676;5.812;2022-12-24T11:45:34;101174.66;;;12.16;78.44
59104;BME280;51449;51.676;5.812;2022-12-24T11:47:57;101169.28;;;12.20;78.35
59104;BME280;51449;51.676;5.812;2022-12-24T11:50:33;101177.03;;;12.27;78.85
59104;BME280;51449;51.676;5.812;2022-12-24T11:58:24;101191.19;;;12.25;77.82
59104;BME280;51449;51.676;5.812;2022-12-24T12:00:51;101180.34;;;12.20;76.45
59104;BME280;51449;51.676;5.812;2022-12-24T12:03:38;101184.72;;;12.21;76.38
59104;BME280;51449;51.676;5.812;2022-12-24T12:06:10;101182.94;;;12.16;75.24
59104;BME280;51449;51.676;5.812;2022-12-24T12:08:49;101177.03;;;12.06;75.21
59104;BME280;51449;51.676;5.812;2022-12-24T12:11:14;101178.03;;;12.01;74.06
59104;BME280;51449;51.676;5.812;2022-12-24T12:13:40;101194.91;;;11.99;73.93
59104;BME280;51449;51.676;5.812;2022-12-24T12:16:20;101196.75;;;11.95;73.50
59104;BME280;51449;51.676;5.812;2022-12-24T12:19:02;101204.56;;;11.93;73.08
59104;BME280;51449;51.676;5.812;2022-12-24T12:21:40;101202.91;;;11.92;73.58
59104;BME280;51449;51.676;5.812;2022-12-24T12:24:12;101196.75;;;11.95;73.55
59104;BME280;51449;51.676;5.812;2022-12-24T12:26:45;101208.13;;;11.94;72.99
59104;BME280;51449;51.676;5.812;2022-12-24T12:31:41;101200.16;;;11.92;73.31
59104;BME280;51449;51.676;5.812;2022-12-24T12:34:25;101208.44;;;11.92;73.80
59104;BME280;51449;51.676;5.812;2022-12-24T12:36:57;101212.84;;;11.93;73.66
59104;BME280;51449;51.676;5.812;2022-12-24T12:39:42;101216.06;;;11.95;74.07
59104;BME280;51449;51.676;5.812;2022-12-24T12:42:29;101209.56;;;12.00;73.95
59104;BME280;51449;51.676;5.812;2022-12-24T12:55:32;101221.34;;;12.09;75.74
59104;BME280;51449;51.676;5.812;2022-12-24T12:58:15;101221.16;;;12.14;76.20
59104;BME280;51449;51.676;5.812;2022-12-24T13:00:46;101218.06;;;12.16;76.36
59104;BME280;51449;51.676;5.812;2022-12-24T13:12:02;101237.59;;;12.11;75.77
59104;BME280;51449;51.676;5.812;2022-12-24T13:14:52;101241.69;;;12.05;75.48
59104;BME280;51449;51.676;5.812;2022-12-24T13:17:54;101250.63;;;12.02;75.50
59104;BME280;51449;51.676;5.812;2022-12-24T13:20:47;101252.91;;;11.99;75.83
59104;BME280;51449;51.676;5.812;2022-12-24T13:23:11;101249.53;;;11.94;75.14
59104;BME280;51449;51.676;5.812;2022-12-24T13:25:37;101261.25;;;11.91;75.20
59104;BME280;51449;51.676;5.812;2022-12-24T13:30:38;101259.63;;;11.90;74.79
59104;BME280;51449;51.676;5.812;2022-12-24T13:33:01;101255.56;;;11.87;75.03
59104;BME280;51449;51.676;5.812;2022-12-24T13:35:32;101259.63;;;11.90;75.07
59104;BME280;51449;51.676;5.812;2022-12-24T13:40:48;101266.91;;;11.94;74.58
59104;BME280;51449;51.676;5.812;2022-12-24T13:43:10;101261.53;;;11.98;74.71
59104;BME280;51449;51.676;5.812;2022-12-24T13:50:22;101271.06;;;12.09;74.78
59104;BME280;51449;51.676;5.812;2022-12-24T13:52:52;101262.13;;;12.12;74.79
59104;BME280;51449;51.676;5.812;2022-12-24T13:55:15;101265.16;;;12.19;74.65
59104;BME280;51449;51.676;5.812;2022-12-24T13:57:57;101269.69;;;12.24;74.52
59104;BME280;51449;51.676;5.812;2022-12-24T14:00:29;101269.03;;;12.27;74.30
59104;BME280;51449;51.676;5.812;2022-12-24T14:03:19;101266.06;;;12.32;73.85